createdAt,value
2023-01-12T00:00:31.270Z,9.50
2023-01-12T00:03:00.161Z,5.83
2023-01-12T00:05:29.926Z,8.90
2023-01-12T00:07:58.611Z,10.03
2023-01-12T00:10:27.194Z,10.50
2023-01-12T00:12:55.888Z,7.27
2023-01-12T00:15:57.532Z,6.47
2023-01-12T00:18:27.899Z,15.73
2023-01-12T00:20:57.808Z,12.17
2023-01-12T00:23:32.949Z,9.63
2023-01-12T00:26:01.425Z,13.00
2023-01-12T00:28:30.624Z,10.43
2023-01-12T00:31:02.132Z,16.77
2023-01-12T00:33:31.024Z,4.60
2023-01-12T00:36:03.812Z,20.40
2023-01-12T00:38:34.096Z,5.23
2023-01-12T00:41:06.561Z,5.90
2023-01-12T00:43:52.650Z,7.27
2023-01-12T00:46:21.331Z,14.13
2023-01-12T00:48:49.768Z,14.27
2023-01-12T00:51:19.805Z,11.20
2023-01-12T00:53:49.789Z,10.27
2023-01-12T00:56:19.387Z,8.80
2023-01-12T00:58:48.612Z,10.23
2023-01-12T01:01:17.167Z,22.27
2023-01-12T01:03:45.484Z,10.90
2023-01-12T01:06:13.908Z,10.27
2023-01-12T01:08:44.095Z,7.60
2023-01-12T01:11:14.293Z,11.53
2023-01-12T01:13:44.629Z,3.27
2023-01-12T01:16:15.553Z,10.50
2023-01-12T01:18:44.288Z,7.30
2023-01-12T01:21:15.322Z,7.43
2023-01-12T01:23:45.661Z,23.00
2023-01-12T01:26:17.375Z,13.97
2023-01-12T01:28:46.542Z,13.13
2023-01-12T01:31:16.502Z,9.17
2023-01-12T01:33:46.183Z,12.27
2023-01-12T01:36:17.081Z,7.97
2023-01-12T01:38:50.033Z,10.03
2023-01-12T01:41:24.651Z,16.23
2023-01-12T01:43:56.441Z,7.57
2023-01-12T01:46:43.097Z,6.53
2023-01-12T01:49:31.997Z,9.70
2023-01-12T01:52:04.952Z,11.80
2023-01-12T01:54:39.248Z,10.17
2023-01-12T01:57:09.212Z,11.40
2023-01-12T01:59:42.970Z,10.27
2023-01-12T02:02:11.612Z,3.67
2023-01-12T02:04:41.329Z,16.53
2023-01-12T02:07:10.978Z,5.23
2023-01-12T02:09:41.605Z,14.00
2023-01-12T02:12:28.201Z,8.07
2023-01-12T02:15:14.979Z,15.07
2023-01-12T02:17:59.246Z,11.20
2023-01-12T02:20:52.712Z,9.10
2023-01-12T02:24:03.438Z,9.43
2023-01-12T02:27:30.038Z,6.63
2023-01-12T02:30:41.744Z,14.63
2023-01-12T02:33:33.067Z,14.23
2023-01-12T02:36:11.168Z,16.10
2023-01-12T02:38:46.187Z,7.87
2023-01-12T02:41:42.254Z,4.20
2023-01-12T02:44:24.780Z,12.00
2023-01-12T02:46:53.777Z,11.27
2023-01-12T02:49:27.261Z,14.30
2023-01-12T02:52:00.239Z,8.60
2023-01-12T02:54:30.996Z,9.70
2023-01-12T02:57:04.793Z,16.30
2023-01-12T02:59:35.628Z,7.90
2023-01-12T03:02:08.869Z,25.57
2023-01-12T03:04:40.181Z,7.17
2023-01-12T03:07:31.581Z,11.13
2023-01-12T03:10:03.570Z,10.43
2023-01-12T03:12:36.236Z,13.53
2023-01-12T03:15:11.380Z,10.40
2023-01-12T03:17:44.712Z,6.23
2023-01-12T03:20:21.967Z,13.33
2023-01-12T03:22:53.289Z,10.00
2023-01-12T03:25:24.610Z,9.90
2023-01-12T03:27:56.989Z,11.83
2023-01-12T03:30:30.020Z,15.43
2023-01-12T03:32:59.568Z,16.67
2023-01-12T03:35:32.969Z,13.97
2023-01-12T03:38:06.556Z,3.83
2023-01-12T03:40:38.599Z,9.07
2023-01-12T03:43:14.355Z,11.50
2023-01-12T03:45:46.871Z,9.27
2023-01-12T03:48:20.885Z,6.57
2023-01-12T03:50:57.345Z,9.67
2023-01-12T03:53:26.357Z,7.73
2023-01-12T03:55:58.700Z,6.67
2023-01-12T03:58:27.661Z,4.33
2023-01-12T04:00:56.500Z,8.60
2023-01-12T04:03:25.701Z,9.90
2023-01-12T04:05:56.324Z,7.87
2023-01-12T04:08:24.937Z,11.17
2023-01-12T04:10:53.714Z,15.83
2023-01-12T04:13:21.001Z,10.17
2023-01-12T04:15:50.489Z,12.97
2023-01-12T04:18:19.457Z,7.60
2023-01-12T04:20:48.940Z,13.30
2023-01-12T04:23:17.959Z,9.53
2023-01-12T04:25:46.376Z,11.23
2023-01-12T04:28:18.557Z,8.23
2023-01-12T04:30:47.064Z,12.13
2023-01-12T04:33:15.745Z,17.83
2023-01-12T04:35:45.290Z,20.57
2023-01-12T04:38:14.260Z,17.53
2023-01-12T04:40:44.296Z,9.23
2023-01-12T04:43:13.312Z,8.97
2023-01-12T04:45:43.836Z,10.33
2023-01-12T04:48:13.856Z,7.67
2023-01-12T04:50:44.435Z,7.53
2023-01-12T04:53:14.326Z,5.00
2023-01-12T04:55:45.271Z,11.57
2023-01-12T04:58:14.356Z,9.03
2023-01-12T05:00:42.966Z,19.77
2023-01-12T05:03:13.138Z,10.13
2023-01-12T05:05:41.555Z,16.67
2023-01-12T05:08:28.689Z,10.53
2023-01-12T05:11:00.189Z,8.50
2023-01-12T05:13:31.478Z,15.97
2023-01-12T05:16:10.078Z,3.00
2023-01-12T05:18:39.029Z,10.10
2023-01-12T05:21:07.698Z,12.90
2023-01-12T05:23:36.067Z,5.53
2023-01-12T05:26:07.712Z,11.47
2023-01-12T05:28:36.403Z,7.33
2023-01-12T05:31:07.242Z,7.43
2023-01-12T05:33:36.365Z,6.47
2023-01-12T05:36:07.146Z,16.07
2023-01-12T05:38:35.915Z,5.20
2023-01-12T05:41:10.228Z,5.67
2023-01-12T05:43:53.193Z,14.63
2023-01-12T05:46:24.286Z,6.27
2023-01-12T05:48:54.307Z,9.67
2023-01-12T05:51:24.788Z,5.73
2023-01-12T05:53:53.383Z,9.50
2023-01-12T05:56:25.751Z,9.60
2023-01-12T05:58:55.904Z,14.73
2023-01-12T06:01:25.189Z,16.13
2023-01-12T06:03:55.528Z,29.10
2023-01-12T06:06:26.141Z,13.77
2023-01-12T06:08:56.933Z,8.60
2023-01-12T06:11:44.460Z,9.37
2023-01-12T06:14:13.128Z,15.80
2023-01-12T06:16:44.759Z,13.70
2023-01-12T06:19:13.637Z,7.53
2023-01-12T06:21:42.538Z,12.50
2023-01-12T06:24:11.697Z,8.77
2023-01-12T06:26:45.445Z,7.27
2023-01-12T06:29:15.096Z,9.60
2023-01-12T06:31:44.087Z,11.73
2023-01-12T06:34:12.755Z,10.20
2023-01-12T06:36:41.375Z,10.87
2023-01-12T06:39:09.725Z,8.20
2023-01-12T06:41:56.522Z,9.67
2023-01-12T06:44:27.929Z,15.47
2023-01-12T06:46:56.901Z,6.83
2023-01-12T06:49:25.455Z,12.30
2023-01-12T06:51:53.897Z,2.50
2023-01-12T06:54:23.087Z,7.73
2023-01-12T06:56:51.607Z,8.43
2023-01-12T06:59:20.520Z,2.77
2023-01-12T07:01:50.808Z,9.50
2023-01-12T07:04:21.262Z,9.90
2023-01-12T07:06:50.688Z,9.27
2023-01-12T07:09:19.656Z,4.80
2023-01-12T07:11:48.949Z,8.20
2023-01-12T07:14:17.279Z,3.60
2023-01-12T07:16:45.995Z,5.33
2023-01-12T07:19:16.117Z,8.27
2023-01-12T07:21:45.408Z,4.53
2023-01-12T07:24:14.047Z,0.60
2023-01-12T07:26:42.593Z,5.00
2023-01-12T07:29:11.604Z,5.40
2023-01-12T07:31:40.307Z,12.00
2023-01-12T07:34:09.074Z,4.30
2023-01-12T07:36:40.442Z,8.10
2023-01-12T07:39:10.658Z,7.50
2023-01-12T07:41:56.176Z,4.13
2023-01-12T07:44:24.448Z,5.00
2023-01-12T07:46:52.986Z,7.03
2023-01-12T07:49:21.292Z,6.57
2023-01-12T07:51:53.887Z,12.03
2023-01-12T07:54:23.994Z,8.13
2023-01-12T07:56:52.510Z,13.87
2023-01-12T07:59:20.757Z,8.93
2023-01-12T08:01:49.320Z,8.30
2023-01-12T08:04:17.810Z,4.20
2023-01-12T08:06:46.563Z,8.33
2023-01-12T08:09:16.581Z,15.40
2023-01-12T08:11:44.796Z,11.43
2023-01-12T08:14:26.639Z,10.00
2023-01-12T08:16:56.705Z,13.00
2023-01-12T08:19:30.264Z,11.13
2023-01-12T08:22:03.271Z,8.87
2023-01-12T08:24:37.255Z,11.37
2023-01-12T08:27:08.613Z,14.23
2023-01-12T08:29:44.033Z,3.63
2023-01-12T08:32:18.884Z,11.77
2023-01-12T08:34:50.511Z,4.77
2023-01-12T08:37:22.590Z,9.80
2023-01-12T08:39:54.050Z,6.13
2023-01-12T08:42:26.430Z,13.03
2023-01-12T08:44:56.239Z,5.70
2023-01-12T08:47:27.223Z,6.87
2023-01-12T08:49:55.894Z,8.70
2023-01-12T08:52:25.669Z,10.23
2023-01-12T08:54:55.556Z,6.63
2023-01-12T08:57:25.812Z,3.87
2023-01-12T08:59:55.538Z,5.23
2023-01-12T09:02:26.874Z,8.30
2023-01-12T09:04:55.490Z,5.03
2023-01-12T09:07:24.482Z,4.40
2023-01-12T09:09:56.406Z,9.00
2023-01-12T09:12:26.921Z,2.43
2023-01-12T09:14:55.711Z,10.40
2023-01-12T09:17:25.967Z,9.73
2023-01-12T09:19:54.922Z,7.13
2023-01-12T09:22:24.977Z,6.50
2023-01-12T09:24:53.428Z,8.63
2023-01-12T09:27:25.133Z,5.87
2023-01-12T09:29:53.587Z,9.27
2023-01-12T09:32:26.006Z,6.07
2023-01-12T09:34:59.789Z,4.90
2023-01-12T09:37:29.937Z,2.70
2023-01-12T09:39:59.814Z,9.27
2023-01-12T09:42:47.022Z,2.20
2023-01-12T09:45:38.820Z,4.30
2023-01-12T09:48:09.896Z,2.67
2023-01-12T09:50:41.020Z,4.50
2023-01-12T09:53:17.435Z,8.07
2023-01-12T09:55:53.154Z,4.23
2023-01-12T09:58:38.017Z,3.60
2023-01-12T10:01:20.501Z,8.63
2023-01-12T10:03:56.899Z,4.70
2023-01-12T10:06:25.376Z,3.47
2023-01-12T10:08:57.136Z,9.03
2023-01-12T10:11:34.803Z,4.80
2023-01-12T10:14:38.259Z,4.60
2023-01-12T10:17:27.901Z,5.43
2023-01-12T10:20:05.657Z,3.33
2023-01-12T10:22:39.137Z,5.40
2023-01-12T10:25:17.834Z,10.13
2023-01-12T10:27:50.383Z,0.87
2023-01-12T10:30:22.251Z,2.73
2023-01-12T10:32:51.094Z,3.33
2023-01-12T10:35:20.804Z,1.63
2023-01-12T10:37:52.324Z,10.73
2023-01-12T10:40:31.800Z,2.40
2023-01-12T10:43:24.206Z,2.50
2023-01-12T10:46:16.972Z,2.33
2023-01-12T10:48:49.113Z,3.50
2023-01-12T10:51:23.803Z,2.30
2023-01-12T10:53:56.946Z,3.90
2023-01-12T10:56:31.600Z,3.80
2023-01-12T10:59:04.537Z,0.90
2023-01-12T11:01:51.029Z,1.80
2023-01-12T11:04:23.066Z,0.70
2023-01-12T11:07:05.112Z,6.00
2023-01-12T11:09:34.230Z,3.77
2023-01-12T11:12:05.100Z,0.97
2023-01-12T11:14:36.141Z,2.80
2023-01-12T11:17:33.069Z,3.57
2023-01-12T11:20:06.024Z,0.90
2023-01-12T11:22:38.601Z,2.00
2023-01-12T11:25:15.349Z,0.80
2023-01-12T11:27:48.799Z,1.80
2023-01-12T11:30:22.482Z,0.50
2023-01-12T11:33:00.054Z,6.93
2023-01-12T11:35:35.095Z,1.73
2023-01-12T11:38:10.899Z,1.87
2023-01-12T11:40:41.574Z,4.67
2023-01-12T11:43:39.640Z,1.33
2023-01-12T11:46:16.267Z,2.97
2023-01-12T11:48:52.736Z,2.50
2023-01-12T11:51:23.109Z,2.70
2023-01-12T11:53:52.703Z,1.13
2023-01-12T11:56:42.907Z,3.00
2023-01-12T11:59:19.305Z,2.10
2023-01-12T12:01:56.659Z,2.43
2023-01-12T12:04:47.023Z,3.70
2023-01-12T12:07:34.056Z,2.30
2023-01-12T12:10:17.422Z,1.30
2023-01-12T12:12:55.693Z,2.77
2023-01-12T12:15:32.127Z,2.60
2023-01-12T12:18:16.597Z,3.23
2023-01-12T12:21:01.693Z,2.00
2023-01-12T12:23:35.711Z,5.83
2023-01-12T12:26:12.765Z,2.17
2023-01-12T12:28:58.398Z,1.23
2023-01-12T12:31:41.394Z,2.40
2023-01-12T12:34:59.716Z,1.50
2023-01-12T12:37:48.040Z,1.80
2023-01-12T12:40:55.288Z,1.03
2023-01-12T12:43:48.025Z,3.00
2023-01-12T12:46:26.852Z,0.80
2023-01-12T12:49:02.231Z,1.80
2023-01-12T12:51:35.336Z,1.33
2023-01-12T12:54:11.728Z,0.60
2023-01-12T12:56:40.534Z,0.60
2023-01-12T12:59:32.246Z,0.60
2023-01-12T13:02:02.789Z,0.53
2023-01-12T13:05:05.986Z,3.13
2023-01-12T13:07:37.987Z,1.10
2023-01-12T13:10:38.922Z,0.83
2023-01-12T13:13:26.815Z,2.40
2023-01-12T13:16:24.850Z,3.63
2023-01-12T13:19:08.589Z,4.70
2023-01-12T13:21:57.067Z,4.30
2023-01-12T13:24:39.979Z,1.30
2023-01-12T13:27:42.900Z,3.47
2023-01-12T13:30:50.161Z,1.80
2023-01-12T13:33:24.561Z,0.97
2023-01-12T13:36:05.301Z,2.13
2023-01-12T13:38:55.149Z,1.63
2023-01-12T13:41:45.406Z,4.93
2023-01-12T13:44:21.556Z,1.50
2023-01-12T13:46:57.445Z,2.23
2023-01-12T13:49:29.708Z,2.40
2023-01-12T13:52:00.963Z,2.53
2023-01-12T13:54:30.081Z,3.13
2023-01-12T13:57:02.210Z,1.53
2023-01-12T13:59:31.002Z,1.43
2023-01-12T14:02:01.195Z,1.83
2023-01-12T14:05:14.587Z,2.20
2023-01-12T14:07:54.183Z,3.03
2023-01-12T14:10:36.198Z,2.80
2023-01-12T14:13:37.326Z,4.77
2023-01-12T14:16:30.335Z,5.40
2023-01-12T14:19:00.487Z,5.60
2023-01-12T14:21:32.933Z,2.27
2023-01-12T14:24:16.817Z,1.70
2023-01-12T14:26:47.857Z,4.03
2023-01-12T14:29:17.863Z,1.00
2023-01-12T14:31:48.645Z,1.23
2023-01-12T14:34:29.074Z,2.83
2023-01-12T14:36:58.104Z,1.57
2023-01-12T14:39:28.330Z,1.70
2023-01-12T14:42:15.451Z,7.07
2023-01-12T14:45:14.676Z,5.50
2023-01-12T14:47:43.184Z,1.27
2023-01-12T14:50:23.456Z,0.80
2023-01-12T14:52:53.657Z,4.63
2023-01-12T14:55:29.539Z,1.20
2023-01-12T14:58:00.890Z,1.47
2023-01-12T15:00:33.128Z,0.90
2023-01-12T15:03:07.639Z,1.40
2023-01-12T15:05:37.859Z,3.43
2023-01-12T15:08:23.635Z,3.03
2023-01-12T15:11:07.556Z,1.90
2023-01-12T15:13:36.891Z,3.50
2023-01-12T15:16:24.264Z,1.93
2023-01-12T15:19:10.465Z,1.07
2023-01-12T15:22:01.998Z,3.37
2023-01-12T15:24:49.798Z,2.93
2023-01-12T15:27:20.503Z,0.87
2023-01-12T15:29:49.774Z,1.97
2023-01-12T15:32:24.744Z,1.93
2023-01-12T15:34:54.954Z,2.60
2023-01-12T15:37:24.768Z,1.30
2023-01-12T15:39:53.893Z,2.33
2023-01-12T15:42:23.124Z,0.70
2023-01-12T15:44:52.628Z,4.67
2023-01-12T15:47:22.427Z,0.97
2023-01-12T15:49:55.632Z,1.90
2023-01-12T15:52:27.392Z,1.67
2023-01-12T15:54:56.061Z,2.40
2023-01-12T15:57:24.870Z,2.60
2023-01-12T15:59:53.161Z,3.63
2023-01-12T16:02:34.643Z,1.77
2023-01-12T16:05:03.984Z,2.97
2023-01-12T16:07:33.929Z,2.97
2023-01-12T16:10:02.611Z,3.40
2023-01-12T16:12:31.545Z,1.23
2023-01-12T16:15:01.208Z,1.83
2023-01-12T16:17:29.900Z,2.53
2023-01-12T16:19:58.723Z,1.03
2023-01-12T16:22:28.296Z,2.07
2023-01-12T16:24:58.706Z,2.60
2023-01-12T16:27:28.239Z,1.23
2023-01-12T16:29:57.006Z,1.73
2023-01-12T16:32:26.429Z,1.50
2023-01-12T16:34:55.598Z,3.70
2023-01-12T16:37:27.544Z,4.67
2023-01-12T16:39:58.142Z,6.43
2023-01-12T16:42:27.177Z,3.63
2023-01-12T16:44:55.990Z,1.47
2023-01-12T16:47:24.766Z,1.83
2023-01-12T16:49:54.524Z,2.20
2023-01-12T16:52:25.066Z,3.70
2023-01-12T16:54:54.640Z,1.37
2023-01-12T16:57:25.308Z,0.97
2023-01-12T16:59:54.143Z,1.20
2023-01-12T17:02:22.943Z,1.10
2023-01-12T17:04:53.258Z,3.07
2023-01-12T17:07:21.873Z,2.50
2023-01-12T17:09:50.947Z,1.03
2023-01-12T17:12:19.412Z,3.20
2023-01-12T17:14:49.456Z,0.67
2023-01-12T17:17:18.239Z,3.30
2023-01-12T17:19:47.814Z,1.50
2023-01-12T17:22:17.642Z,4.03
2023-01-12T17:24:47.507Z,1.90
2023-01-12T17:27:16.341Z,0.80
2023-01-12T17:29:47.066Z,0.97
2023-01-12T17:32:18.182Z,3.90
2023-01-12T17:34:48.217Z,6.53
2023-01-12T17:37:18.112Z,2.57
2023-01-12T17:39:47.663Z,5.30
2023-01-12T17:42:35.186Z,2.00
2023-01-12T17:45:05.393Z,1.87
2023-01-12T17:47:35.952Z,4.50
2023-01-12T17:50:05.035Z,1.77
2023-01-12T17:52:34.755Z,2.53
2023-01-12T17:55:04.981Z,1.30
2023-01-12T17:57:35.412Z,3.20
2023-01-12T18:00:06.806Z,1.23
2023-01-12T18:02:43.205Z,3.27
2023-01-12T18:05:12.111Z,1.60
2023-01-12T18:07:42.050Z,3.83
2023-01-12T18:10:12.239Z,3.23
2023-01-12T18:12:41.041Z,2.40
2023-01-12T18:15:10.917Z,5.73
2023-01-12T18:17:40.657Z,2.17
2023-01-12T18:20:11.714Z,4.47
2023-01-12T18:22:40.676Z,1.90
2023-01-12T18:25:09.724Z,5.03
2023-01-12T18:27:39.196Z,4.97
2023-01-12T18:30:08.865Z,1.73
2023-01-12T18:32:37.277Z,3.20
2023-01-12T18:35:06.864Z,4.67
2023-01-12T18:37:39.808Z,2.57
2023-01-12T18:40:10.342Z,0.83
2023-01-12T18:42:51.403Z,2.80
2023-01-12T18:45:20.340Z,3.93
2023-01-12T18:48:07.165Z,3.70
2023-01-12T18:50:52.426Z,2.77
2023-01-12T18:53:25.963Z,4.37
2023-01-12T18:55:57.427Z,4.33
2023-01-12T18:58:28.882Z,1.53
2023-01-12T19:00:59.064Z,3.00
2023-01-12T19:03:27.890Z,3.80
2023-01-12T19:06:00.622Z,2.43
2023-01-12T19:08:48.880Z,1.30
2023-01-12T19:11:18.019Z,1.10
2023-01-12T19:14:03.658Z,6.83
2023-01-12T19:16:50.029Z,3.73
2023-01-12T19:19:22.691Z,1.70
2023-01-12T19:22:08.728Z,1.23
2023-01-12T19:24:57.224Z,2.67
2023-01-12T19:27:43.244Z,2.70
2023-01-12T19:30:13.435Z,4.30
2023-01-12T19:32:42.462Z,1.80
2023-01-12T19:35:11.839Z,1.03
2023-01-12T19:37:42.576Z,3.03
2023-01-12T19:40:20.116Z,1.53
2023-01-12T19:43:06.116Z,1.30
2023-01-12T19:45:37.793Z,2.93
2023-01-12T19:48:07.455Z,6.13
2023-01-12T19:50:36.746Z,4.53
2023-01-12T19:53:05.774Z,2.37
2023-01-12T19:55:35.838Z,2.20
2023-01-12T19:58:08.886Z,1.37
2023-01-12T20:00:45.052Z,3.83
2023-01-12T20:03:14.644Z,7.17
2023-01-12T20:05:47.555Z,2.53
2023-01-12T20:08:16.161Z,2.97
2023-01-12T20:10:48.035Z,1.93
2023-01-12T20:13:16.285Z,7.70
2023-01-12T20:15:45.141Z,6.93
2023-01-12T20:18:13.921Z,2.90
2023-01-12T20:20:42.615Z,4.10
2023-01-12T20:23:13.083Z,2.60
2023-01-12T20:25:42.136Z,2.77
2023-01-12T20:28:13.353Z,2.00
2023-01-12T20:30:42.071Z,1.93
2023-01-12T20:33:11.993Z,2.07
2023-01-12T20:35:46.454Z,1.33
2023-01-12T20:38:16.751Z,4.10
2023-01-12T20:40:47.617Z,3.90
2023-01-12T20:43:18.017Z,0.93
2023-01-12T20:45:47.071Z,1.70
2023-01-12T20:48:15.842Z,1.37
2023-01-12T20:50:45.645Z,1.17
2023-01-12T20:53:16.904Z,4.10
2023-01-12T20:55:46.750Z,1.00
2023-01-12T20:58:15.878Z,1.07
2023-01-12T21:00:46.842Z,3.90
2023-01-12T21:03:15.230Z,3.30
2023-01-12T21:05:44.614Z,5.23
2023-01-12T21:08:14.594Z,1.70
2023-01-12T21:10:49.562Z,3.50
2023-01-12T21:13:18.027Z,2.40
2023-01-12T21:15:48.346Z,3.00
2023-01-12T21:18:16.716Z,2.33
2023-01-12T21:20:46.343Z,1.50
2023-01-12T21:23:15.264Z,4.00
2023-01-12T21:25:44.643Z,5.07
2023-01-12T21:28:13.142Z,1.60
2023-01-12T21:30:42.029Z,2.47
2023-01-12T21:33:12.056Z,1.27
2023-01-12T21:35:41.283Z,1.50
2023-01-12T21:38:10.605Z,3.13
2023-01-12T21:40:39.061Z,4.03
2023-01-12T21:43:10.345Z,2.10
2023-01-12T21:45:39.539Z,2.60
2023-01-12T21:48:08.826Z,2.13
2023-01-12T21:50:39.400Z,2.03
2023-01-12T21:53:09.557Z,2.70
2023-01-12T21:55:38.117Z,3.07
2023-01-12T21:58:06.823Z,2.40
2023-01-12T22:00:35.906Z,1.67
2023-01-12T22:03:04.703Z,1.43
2023-01-12T22:05:36.666Z,1.33
2023-01-12T22:08:07.262Z,1.77
2023-01-12T22:10:37.032Z,2.40
2023-01-12T22:13:10.080Z,2.60
2023-01-12T22:15:38.360Z,4.40
2023-01-12T22:18:08.188Z,5.30
2023-01-12T22:20:37.488Z,6.30
2023-01-12T22:23:07.696Z,5.13
2023-01-12T22:25:35.986Z,7.50
2023-01-12T22:28:05.772Z,3.17
2023-01-12T22:30:36.015Z,6.17
2023-01-12T22:33:05.015Z,9.93
2023-01-12T22:35:34.329Z,1.97
2023-01-12T22:38:03.088Z,1.33
2023-01-12T22:40:33.149Z,9.90
2023-01-12T22:43:20.022Z,10.43
2023-01-12T22:45:50.703Z,4.70
2023-01-12T22:48:22.656Z,7.00
2023-01-12T22:50:53.662Z,2.37
2023-01-12T22:53:24.076Z,5.17
2023-01-12T22:55:54.405Z,5.47
2023-01-12T22:58:25.203Z,1.80
2023-01-12T23:00:54.132Z,3.03
2023-01-12T23:03:22.836Z,6.30
2023-01-12T23:05:56.610Z,5.23
2023-01-12T23:08:26.230Z,1.27
2023-01-12T23:11:05.276Z,2.30
2023-01-12T23:13:34.639Z,6.87
2023-01-12T23:16:06.244Z,1.23
2023-01-12T23:18:40.007Z,4.10
2023-01-12T23:21:14.042Z,3.90
2023-01-12T23:23:43.848Z,2.80
2023-01-12T23:26:16.094Z,1.80
2023-01-12T23:28:49.434Z,5.17
2023-01-12T23:31:20.275Z,3.50
2023-01-12T23:33:50.206Z,1.40
2023-01-12T23:36:25.077Z,1.07
2023-01-12T23:38:54.472Z,2.30
2023-01-12T23:41:26.613Z,1.40
2023-01-12T23:43:59.859Z,4.77
2023-01-12T23:46:30.846Z,1.53
2023-01-12T23:48:59.493Z,0.90
2023-01-12T23:51:29.651Z,0.60
2023-01-12T23:54:02.211Z,2.87
2023-01-12T23:56:34.915Z,2.40
2023-01-12T23:59:03.263Z,1.10
